Perry, Texas
Current Conditions -  °F | °C
As of 7:51 AM on Monday 24 Nov 2014 (Local Time) from KACT Reporting Station
Clear Clear  
Wind Chill: 40°   Ceiling: Unl
Heat Index: 43°   Visibility: 10mi
Dew Point: 38°   Wind: 5mph
Humidity: 82%   Direction: 270°W
Pressure: 30.04"   Gusts: NA
Location:  31.42°N, 96.91°W
Report Text: KACT 241351Z 27004KT 10SM CLR 06/03 A3004 RMK AO2 SLP169 T00610033
Loading
Personal Weather Stations






























Interactive Weather Map New forecast layout! Learn more

10-Day Weather Forecast

Advertisements
Track Severe Weather on mobile